Hillegom, Netherlands
Current Conditions -  °F | °C
As of 5:25 PM on Tuesday 21 Oct 2014 (Local Time) from EHAM Reporting Station
Scattered Clouds Scattered Clouds  
Wind Chill: 54°   Ceiling: Unl
Heat Index: 54°   Visibility: 6mi
Dew Point: -13°   Wind: 28mph
Humidity: 6%   Direction: 290°WNW
Pressure: 29.5"   Gusts: NA
Location:  52.29°N, 4.58°E
Report Text: EHAM 211525Z 29024KT 260V320 9999 SCT030CB 12/M25 Q0999 TEMPO6000 SHRA
Loading
Personal Weather Stations






























Interactive Weather Map
Tropical Storm Tracking
New forecast layout! Learn more

10-Day Weather Forecast

Advertisements
Track Severe Weather on mobile